sensor_id;sensor_type;location;lat;lon;timestamp;P1;durP1;ratioP1;P2;durP2;ratioP2
6292;SDS011;3179;54.350;10.102;2023-07-31T00:01:07;1.30;;;0.90;;
6292;SDS011;3179;54.350;10.102;2023-07-31T00:03:33;1.10;;;0.90;;
6292;SDS011;3179;54.350;10.102;2023-07-31T00:06:01;3.97;;;1.13;;
6292;SDS011;3179;54.350;10.102;2023-07-31T00:08:28;3.87;;;1.20;;
6292;SDS011;3179;54.350;10.102;2023-07-31T00:10:56;1.53;;;0.97;;
6292;SDS011;3179;54.350;10.102;2023-07-31T00:13:23;2.53;;;1.00;;
6292;SDS011;3179;54.350;10.102;2023-07-31T00:15:49;1.13;;;0.80;;
6292;SDS011;3179;54.350;10.102;2023-07-31T00:18:16;11.63;;;1.47;;
6292;SDS011;3179;54.350;10.102;2023-07-31T00:20:43;3.30;;;1.10;;
6292;SDS011;3179;54.350;10.102;2023-07-31T00:23:10;3.00;;;1.10;;
6292;SDS011;3179;54.350;10.102;2023-07-31T00:25:36;2.00;;;0.90;;
6292;SDS011;3179;54.350;10.102;2023-07-31T00:28:05;3.20;;;0.80;;
6292;SDS011;3179;54.350;10.102;2023-07-31T00:30:31;1.73;;;0.80;;
6292;SDS011;3179;54.350;10.102;2023-07-31T00:32:58;0.97;;;0.87;;
6292;SDS011;3179;54.350;10.102;2023-07-31T00:35:25;1.80;;;1.00;;
6292;SDS011;3179;54.350;10.102;2023-07-31T00:37:52;1.00;;;0.90;;
6292;SDS011;3179;54.350;10.102;2023-07-31T00:40:18;1.57;;;0.77;;
6292;SDS011;3179;54.350;10.102;2023-07-31T00:42:45;1.07;;;0.77;;
6292;SDS011;3179;54.350;10.102;2023-07-31T00:45:13;2.60;;;1.00;;
6292;SDS011;3179;54.350;10.102;2023-07-31T00:47:40;2.77;;;1.03;;
6292;SDS011;3179;54.350;10.102;2023-07-31T00:50:07;2.87;;;0.83;;
6292;SDS011;3179;54.350;10.102;2023-07-31T00:52:35;5.83;;;0.93;;
6292;SDS011;3179;54.350;10.102;2023-07-31T00:55:01;2.90;;;1.10;;
6292;SDS011;3179;54.350;10.102;2023-07-31T00:57:29;3.03;;;0.93;;
6292;SDS011;3179;54.350;10.102;2023-07-31T00:59:57;1.47;;;0.80;;
6292;SDS011;3179;54.350;10.102;2023-07-31T01:02:26;3.90;;;1.10;;
6292;SDS011;3179;54.350;10.102;2023-07-31T01:04:52;2.10;;;1.00;;
6292;SDS011;3179;54.350;10.102;2023-07-31T01:07:20;2.33;;;0.83;;
6292;SDS011;3179;54.350;10.102;2023-07-31T01:09:56;1.57;;;1.07;;
6292;SDS011;3179;54.350;10.102;2023-07-31T01:12:30;2.30;;;1.00;;
6292;SDS011;3179;54.350;10.102;2023-07-31T01:15:04;0.77;;;0.77;;
6292;SDS011;3179;54.350;10.102;2023-07-31T01:17:33;3.37;;;1.30;;
6292;SDS011;3179;54.350;10.102;2023-07-31T01:20:01;3.97;;;1.33;;
6292;SDS011;3179;54.350;10.102;2023-07-31T01:22:42;1.13;;;0.80;;
6292;SDS011;3179;54.350;10.102;2023-07-31T01:25:48;1.37;;;0.80;;
6292;SDS011;3179;54.350;10.102;2023-07-31T01:28:23;1.17;;;0.80;;
6292;SDS011;3179;54.350;10.102;2023-07-31T01:30:54;1.70;;;0.90;;
6292;SDS011;3179;54.350;10.102;2023-07-31T01:33:24;3.70;;;0.90;;
6292;SDS011;3179;54.350;10.102;2023-07-31T01:35:51;2.60;;;0.70;;
6292;SDS011;3179;54.350;10.102;2023-07-31T01:38:20;2.40;;;0.80;;
6292;SDS011;3179;54.350;10.102;2023-07-31T01:40:51;2.20;;;0.90;;
6292;SDS011;3179;54.350;10.102;2023-07-31T01:43:19;1.10;;;0.90;;
6292;SDS011;3179;54.350;10.102;2023-07-31T01:45:46;0.70;;;0.70;;
6292;SDS011;3179;54.350;10.102;2023-07-31T01:48:12;0.80;;;0.60;;
6292;SDS011;3179;54.350;10.102;2023-07-31T01:50:39;1.80;;;0.93;;
6292;SDS011;3179;54.350;10.102;2023-07-31T01:53:06;2.83;;;0.70;;
6292;SDS011;3179;54.350;10.102;2023-07-31T01:55:33;0.60;;;0.50;;
6292;SDS011;3179;54.350;10.102;2023-07-31T01:58:01;1.57;;;0.90;;
6292;SDS011;3179;54.350;10.102;2023-07-31T02:00:27;2.00;;;0.70;;
6292;SDS011;3179;54.350;10.102;2023-07-31T02:02:54;2.10;;;0.60;;
6292;SDS011;3179;54.350;10.102;2023-07-31T02:05:21;1.37;;;0.70;;
6292;SDS011;3179;54.350;10.102;2023-07-31T02:07:48;4.77;;;0.77;;
6292;SDS011;3179;54.350;10.102;2023-07-31T02:10:14;0.70;;;0.57;;
6292;SDS011;3179;54.350;10.102;2023-07-31T02:12:41;1.57;;;0.70;;
6292;SDS011;3179;54.350;10.102;2023-07-31T02:15:10;0.90;;;0.50;;
6292;SDS011;3179;54.350;10.102;2023-07-31T02:17:36;1.10;;;0.90;;
6292;SDS011;3179;54.350;10.102;2023-07-31T02:20:03;1.00;;;0.77;;
6292;SDS011;3179;54.350;10.102;2023-07-31T02:22:31;2.30;;;0.77;;
6292;SDS011;3179;54.350;10.102;2023-07-31T02:24:58;1.13;;;0.60;;
6292;SDS011;3179;54.350;10.102;2023-07-31T02:27:24;1.00;;;0.50;;
6292;SDS011;3179;54.350;10.102;2023-07-31T02:29:52;1.30;;;0.80;;
6292;SDS011;3179;54.350;10.102;2023-07-31T02:32:20;1.47;;;0.93;;
6292;SDS011;3179;54.350;10.102;2023-07-31T02:34:47;0.60;;;0.60;;
6292;SDS011;3179;54.350;10.102;2023-07-31T02:37:14;1.67;;;0.70;;
6292;SDS011;3179;54.350;10.102;2023-07-31T02:39:41;1.13;;;0.73;;
6292;SDS011;3179;54.350;10.102;2023-07-31T02:42:07;0.70;;;0.70;;
6292;SDS011;3179;54.350;10.102;2023-07-31T02:44:34;1.03;;;0.80;;
6292;SDS011;3179;54.350;10.102;2023-07-31T02:47:01;6.23;;;0.77;;
6292;SDS011;3179;54.350;10.102;2023-07-31T02:49:30;1.70;;;0.80;;
6292;SDS011;3179;54.350;10.102;2023-07-31T02:51:56;0.77;;;0.60;;
6292;SDS011;3179;54.350;10.102;2023-07-31T02:54:23;2.70;;;0.83;;
6292;SDS011;3179;54.350;10.102;2023-07-31T02:56:50;4.47;;;1.00;;
6292;SDS011;3179;54.350;10.102;2023-07-31T02:59:17;1.03;;;0.90;;
6292;SDS011;3179;54.350;10.102;2023-07-31T03:01:44;1.53;;;0.90;;
6292;SDS011;3179;54.350;10.102;2023-07-31T03:04:11;0.87;;;0.87;;
6292;SDS011;3179;54.350;10.102;2023-07-31T03:06:39;4.13;;;1.70;;
6292;SDS011;3179;54.350;10.102;2023-07-31T03:09:05;3.90;;;1.20;;
6292;SDS011;3179;54.350;10.102;2023-07-31T03:11:32;2.83;;;1.47;;
6292;SDS011;3179;54.350;10.102;2023-07-31T03:13:59;1.10;;;0.90;;
6292;SDS011;3179;54.350;10.102;2023-07-31T03:16:26;3.50;;;1.30;;
6292;SDS011;3179;54.350;10.102;2023-07-31T03:18:52;1.80;;;1.20;;
6292;SDS011;3179;54.350;10.102;2023-07-31T03:21:20;1.47;;;1.00;;
6292;SDS011;3179;54.350;10.102;2023-07-31T03:23:48;2.60;;;1.43;;
6292;SDS011;3179;54.350;10.102;2023-07-31T03:26:15;2.10;;;1.43;;
6292;SDS011;3179;54.350;10.102;2023-07-31T03:28:42;4.03;;;1.57;;
6292;SDS011;3179;54.350;10.102;2023-07-31T03:31:08;3.10;;;1.73;;
6292;SDS011;3179;54.350;10.102;2023-07-31T03:33:36;4.83;;;1.60;;
6292;SDS011;3179;54.350;10.102;2023-07-31T03:36:03;2.83;;;1.60;;
6292;SDS011;3179;54.350;10.102;2023-07-31T03:38:30;3.67;;;1.70;;
6292;SDS011;3179;54.350;10.102;2023-07-31T03:40:58;2.47;;;1.40;;
6292;SDS011;3179;54.350;10.102;2023-07-31T03:43:25;2.93;;;1.50;;
6292;SDS011;3179;54.350;10.102;2023-07-31T03:45:52;2.90;;;1.60;;
6292;SDS011;3179;54.350;10.102;2023-07-31T03:48:19;2.50;;;1.50;;
6292;SDS011;3179;54.350;10.102;2023-07-31T03:50:45;2.83;;;1.30;;
6292;SDS011;3179;54.350;10.102;2023-07-31T03:53:12;1.87;;;1.17;;
6292;SDS011;3179;54.350;10.102;2023-07-31T03:55:39;3.90;;;2.13;;
6292;SDS011;3179;54.350;10.102;2023-07-31T03:58:07;2.80;;;1.70;;
6292;SDS011;3179;54.350;10.102;2023-07-31T04:00:34;3.83;;;1.83;;
6292;SDS011;3179;54.350;10.102;2023-07-31T04:03:01;1.90;;;1.40;;
6292;SDS011;3179;54.350;10.102;2023-07-31T04:05:29;4.20;;;2.17;;
6292;SDS011;3179;54.350;10.102;2023-07-31T04:07:56;2.63;;;2.17;;
6292;SDS011;3179;54.350;10.102;2023-07-31T04:10:23;4.83;;;2.10;;
6292;SDS011;3179;54.350;10.102;2023-07-31T04:12:50;4.50;;;1.50;;
6292;SDS011;3179;54.350;10.102;2023-07-31T04:15:18;3.20;;;2.03;;
6292;SDS011;3179;54.350;10.102;2023-07-31T04:17:44;4.60;;;2.13;;
6292;SDS011;3179;54.350;10.102;2023-07-31T04:20:11;2.20;;;2.00;;
6292;SDS011;3179;54.350;10.102;2023-07-31T04:22:38;3.30;;;1.93;;
6292;SDS011;3179;54.350;10.102;2023-07-31T04:25:05;2.70;;;2.07;;
6292;SDS011;3179;54.350;10.102;2023-07-31T04:27:32;5.73;;;2.37;;
6292;SDS011;3179;54.350;10.102;2023-07-31T04:29:59;4.27;;;2.10;;
6292;SDS011;3179;54.350;10.102;2023-07-31T04:32:28;3.37;;;2.07;;
6292;SDS011;3179;54.350;10.102;2023-07-31T04:34:55;4.77;;;2.47;;
6292;SDS011;3179;54.350;10.102;2023-07-31T04:37:22;4.73;;;2.20;;
6292;SDS011;3179;54.350;10.102;2023-07-31T04:39:49;2.00;;;1.77;;
6292;SDS011;3179;54.350;10.102;2023-07-31T04:42:15;5.07;;;2.50;;
6292;SDS011;3179;54.350;10.102;2023-07-31T04:44:42;5.67;;;2.57;;
6292;SDS011;3179;54.350;10.102;2023-07-31T04:47:09;3.40;;;2.60;;
6292;SDS011;3179;54.350;10.102;2023-07-31T04:49:37;2.63;;;2.17;;
6292;SDS011;3179;54.350;10.102;2023-07-31T04:52:04;4.60;;;2.60;;
6292;SDS011;3179;54.350;10.102;2023-07-31T04:54:31;2.33;;;1.87;;
6292;SDS011;3179;54.350;10.102;2023-07-31T04:56:58;3.60;;;2.27;;
6292;SDS011;3179;54.350;10.102;2023-07-31T04:59:25;3.27;;;2.63;;
6292;SDS011;3179;54.350;10.102;2023-07-31T05:01:51;4.93;;;2.63;;
6292;SDS011;3179;54.350;10.102;2023-07-31T05:04:18;5.00;;;2.33;;
6292;SDS011;3179;54.350;10.102;2023-07-31T05:06:46;2.50;;;2.10;;
6292;SDS011;3179;54.350;10.102;2023-07-31T05:09:13;2.30;;;2.10;;
6292;SDS011;3179;54.350;10.102;2023-07-31T05:11:40;3.77;;;2.30;;
6292;SDS011;3179;54.350;10.102;2023-07-31T05:14:08;4.90;;;2.93;;
6292;SDS011;3179;54.350;10.102;2023-07-31T05:16:34;2.53;;;2.03;;
6292;SDS011;3179;54.350;10.102;2023-07-31T05:19:01;2.43;;;2.20;;
6292;SDS011;3179;54.350;10.102;2023-07-31T05:21:28;3.40;;;2.20;;
6292;SDS011;3179;54.350;10.102;2023-07-31T05:23:56;3.30;;;2.17;;
6292;SDS011;3179;54.350;10.102;2023-07-31T05:26:23;3.47;;;2.20;;
6292;SDS011;3179;54.350;10.102;2023-07-31T05:28:49;3.23;;;2.70;;
6292;SDS011;3179;54.350;10.102;2023-07-31T05:31:16;3.83;;;2.57;;
6292;SDS011;3179;54.350;10.102;2023-07-31T05:33:43;2.53;;;2.33;;
6292;SDS011;3179;54.350;10.102;2023-07-31T05:36:10;2.93;;;2.17;;
6292;SDS011;3179;54.350;10.102;2023-07-31T05:38:37;5.07;;;2.23;;
6292;SDS011;3179;54.350;10.102;2023-07-31T05:41:05;7.80;;;3.30;;
6292;SDS011;3179;54.350;10.102;2023-07-31T05:43:31;3.97;;;2.57;;
6292;SDS011;3179;54.350;10.102;2023-07-31T05:45:58;7.73;;;3.40;;
6292;SDS011;3179;54.350;10.102;2023-07-31T05:48:26;6.47;;;2.90;;
6292;SDS011;3179;54.350;10.102;2023-07-31T05:50:53;3.77;;;2.40;;
6292;SDS011;3179;54.350;10.102;2023-07-31T05:53:19;2.60;;;2.40;;
6292;SDS011;3179;54.350;10.102;2023-07-31T05:55:46;4.23;;;2.50;;
6292;SDS011;3179;54.350;10.102;2023-07-31T05:58:14;2.80;;;2.40;;
6292;SDS011;3179;54.350;10.102;2023-07-31T06:00:41;3.60;;;2.87;;
6292;SDS011;3179;54.350;10.102;2023-07-31T06:03:08;3.13;;;2.40;;
6292;SDS011;3179;54.350;10.102;2023-07-31T06:05:34;3.90;;;2.70;;
6292;SDS011;3179;54.350;10.102;2023-07-31T06:08:01;2.90;;;2.03;;
6292;SDS011;3179;54.350;10.102;2023-07-31T06:10:28;7.23;;;3.13;;
6292;SDS011;3179;54.350;10.102;2023-07-31T06:12:55;2.80;;;2.50;;
6292;SDS011;3179;54.350;10.102;2023-07-31T06:15:23;2.87;;;2.47;;
6292;SDS011;3179;54.350;10.102;2023-07-31T06:17:50;5.60;;;2.60;;
6292;SDS011;3179;54.350;10.102;2023-07-31T06:20:17;3.03;;;2.73;;
6292;SDS011;3179;54.350;10.102;2023-07-31T06:22:43;3.17;;;2.17;;
6292;SDS011;3179;54.350;10.102;2023-07-31T06:25:11;1.80;;;1.70;;
6292;SDS011;3179;54.350;10.102;2023-07-31T06:27:38;4.00;;;2.70;;
6292;SDS011;3179;54.350;10.102;2023-07-31T06:30:05;2.77;;;2.27;;
6292;SDS011;3179;54.350;10.102;2023-07-31T06:32:34;2.77;;;2.13;;
6292;SDS011;3179;54.350;10.102;2023-07-31T06:35:01;2.63;;;2.10;;
6292;SDS011;3179;54.350;10.102;2023-07-31T06:37:28;2.93;;;2.50;;
6292;SDS011;3179;54.350;10.102;2023-07-31T06:39:54;4.60;;;2.40;;
6292;SDS011;3179;54.350;10.102;2023-07-31T06:42:21;2.40;;;2.20;;
6292;SDS011;3179;54.350;10.102;2023-07-31T06:44:48;3.80;;;2.30;;
6292;SDS011;3179;54.350;10.102;2023-07-31T06:47:14;2.57;;;1.80;;
6292;SDS011;3179;54.350;10.102;2023-07-31T06:49:43;2.70;;;2.10;;
6292;SDS011;3179;54.350;10.102;2023-07-31T06:52:09;2.30;;;2.10;;
6292;SDS011;3179;54.350;10.102;2023-07-31T06:54:37;2.10;;;1.80;;
6292;SDS011;3179;54.350;10.102;2023-07-31T06:57:04;4.40;;;2.63;;
6292;SDS011;3179;54.350;10.102;2023-07-31T06:59:31;4.10;;;1.90;;
6292;SDS011;3179;54.350;10.102;2023-07-31T07:01:58;2.53;;;1.70;;
6292;SDS011;3179;54.350;10.102;2023-07-31T07:04:24;2.07;;;1.87;;
6292;SDS011;3179;54.350;10.102;2023-07-31T07:06:53;1.77;;;1.43;;
6292;SDS011;3179;54.350;10.102;2023-07-31T07:09:19;2.40;;;1.80;;
6292;SDS011;3179;54.350;10.102;2023-07-31T07:11:46;1.57;;;1.47;;
6292;SDS011;3179;54.350;10.102;2023-07-31T07:14:13;1.47;;;1.33;;
6292;SDS011;3179;54.350;10.102;2023-07-31T07:16:40;1.40;;;1.30;;
6292;SDS011;3179;54.350;10.102;2023-07-31T07:19:07;1.80;;;1.33;;
6292;SDS011;3179;54.350;10.102;2023-07-31T07:21:33;1.40;;;1.30;;
6292;SDS011;3179;54.350;10.102;2023-07-31T07:24:02;2.30;;;1.10;;
6292;SDS011;3179;54.350;10.102;2023-07-31T07:26:29;1.60;;;1.10;;
6292;SDS011;3179;54.350;10.102;2023-07-31T07:28:56;0.97;;;0.97;;
6292;SDS011;3179;54.350;10.102;2023-07-31T07:31:23;1.83;;;1.00;;
6292;SDS011;3179;54.350;10.102;2023-07-31T07:33:50;3.07;;;1.23;;
6292;SDS011;3179;54.350;10.102;2023-07-31T07:36:16;1.10;;;1.00;;
6292;SDS011;3179;54.350;10.102;2023-07-31T07:38:43;1.87;;;0.80;;
6292;SDS011;3179;54.350;10.102;2023-07-31T07:41:11;1.00;;;1.00;;
6292;SDS011;3179;54.350;10.102;2023-07-31T07:43:38;1.00;;;0.90;;
6292;SDS011;3179;54.350;10.102;2023-07-31T07:46:05;1.20;;;0.80;;
6292;SDS011;3179;54.350;10.102;2023-07-31T07:48:31;0.83;;;0.83;;
6292;SDS011;3179;54.350;10.102;2023-07-31T07:50:58;0.70;;;0.60;;
6292;SDS011;3179;54.350;10.102;2023-07-31T07:53:25;0.60;;;0.60;;
6292;SDS011;3179;54.350;10.102;2023-07-31T07:55:52;0.83;;;0.80;;
6292;SDS011;3179;54.350;10.102;2023-07-31T07:58:20;0.70;;;0.70;;
6292;SDS011;3179;54.350;10.102;2023-07-31T08:00:50;0.93;;;0.83;;
6292;SDS011;3179;54.350;10.102;2023-07-31T08:03:17;3.80;;;0.77;;
6292;SDS011;3179;54.350;10.102;2023-07-31T08:05:44;1.07;;;0.70;;
6292;SDS011;3179;54.350;10.102;2023-07-31T08:08:13;0.50;;;0.50;;
6292;SDS011;3179;54.350;10.102;2023-07-31T08:10:40;1.10;;;0.60;;
6292;SDS011;3179;54.350;10.102;2023-07-31T08:13:07;0.50;;;0.50;;
6292;SDS011;3179;54.350;10.102;2023-07-31T08:15:37;0.60;;;0.50;;
6292;SDS011;3179;54.350;10.102;2023-07-31T08:18:03;0.50;;;0.50;;
6292;SDS011;3179;54.350;10.102;2023-07-31T08:20:30;0.50;;;0.50;;
6292;SDS011;3179;54.350;10.102;2023-07-31T08:22:57;0.97;;;0.60;;
6292;SDS011;3179;54.350;10.102;2023-07-31T08:25:24;0.60;;;0.60;;
6292;SDS011;3179;54.350;10.102;2023-07-31T08:27:51;0.70;;;0.60;;
6292;SDS011;3179;54.350;10.102;2023-07-31T08:30:18;0.60;;;0.60;;
6292;SDS011;3179;54.350;10.102;2023-07-31T08:32:46;0.90;;;0.50;;
6292;SDS011;3179;54.350;10.102;2023-07-31T08:35:13;0.77;;;0.70;;
6292;SDS011;3179;54.350;10.102;2023-07-31T08:37:40;0.60;;;0.40;;
6292;SDS011;3179;54.350;10.102;2023-07-31T08:40:07;0.60;;;0.60;;
6292;SDS011;3179;54.350;10.102;2023-07-31T08:42:42;1.40;;;0.57;;
6292;SDS011;3179;54.350;10.102;2023-07-31T08:45:10;1.90;;;0.70;;
6292;SDS011;3179;54.350;10.102;2023-07-31T08:47:40;1.07;;;0.80;;
6292;SDS011;3179;54.350;10.102;2023-07-31T08:50:10;0.80;;;0.80;;
6292;SDS011;3179;54.350;10.102;2023-07-31T08:52:38;1.23;;;0.70;;
6292;SDS011;3179;54.350;10.102;2023-07-31T08:55:05;1.40;;;1.10;;
6292;SDS011;3179;54.350;10.102;2023-07-31T08:57:34;0.80;;;0.70;;
6292;SDS011;3179;54.350;10.102;2023-07-31T09:00:02;0.60;;;0.60;;
6292;SDS011;3179;54.350;10.102;2023-07-31T09:02:31;0.83;;;0.60;;
6292;SDS011;3179;54.350;10.102;2023-07-31T09:05:02;0.67;;;0.50;;
6292;SDS011;3179;54.350;10.102;2023-07-31T09:07:32;0.70;;;0.67;;
6292;SDS011;3179;54.350;10.102;2023-07-31T09:10:00;0.67;;;0.67;;
6292;SDS011;3179;54.350;10.102;2023-07-31T09:12:27;1.80;;;0.80;;
6292;SDS011;3179;54.350;10.102;2023-07-31T09:14:54;1.33;;;0.70;;
6292;SDS011;3179;54.350;10.102;2023-07-31T09:17:28;0.97;;;0.90;;
6292;SDS011;3179;54.350;10.102;2023-07-31T09:19:55;0.77;;;0.70;;
6292;SDS011;3179;54.350;10.102;2023-07-31T09:22:30;0.70;;;0.63;;
6292;SDS011;3179;54.350;10.102;2023-07-31T09:25:04;1.17;;;1.00;;
6292;SDS011;3179;54.350;10.102;2023-07-31T09:27:47;0.70;;;0.70;;
6292;SDS011;3179;54.350;10.102;2023-07-31T09:30:15;1.90;;;1.00;;
6292;SDS011;3179;54.350;10.102;2023-07-31T09:32:43;1.40;;;1.20;;
6292;SDS011;3179;54.350;10.102;2023-07-31T09:35:13;1.17;;;0.73;;
6292;SDS011;3179;54.350;10.102;2023-07-31T09:37:49;0.90;;;0.90;;
6292;SDS011;3179;54.350;10.102;2023-07-31T09:40:26;1.13;;;1.00;;
6292;SDS011;3179;54.350;10.102;2023-07-31T09:42:54;0.83;;;0.70;;
6292;SDS011;3179;54.350;10.102;2023-07-31T09:45:23;1.10;;;1.00;;
6292;SDS011;3179;54.350;10.102;2023-07-31T09:47:50;1.07;;;1.03;;
6292;SDS011;3179;54.350;10.102;2023-07-31T09:50:17;0.83;;;0.83;;
6292;SDS011;3179;54.350;10.102;2023-07-31T09:52:45;0.70;;;0.60;;
6292;SDS011;3179;54.350;10.102;2023-07-31T09:55:14;0.70;;;0.70;;
6292;SDS011;3179;54.350;10.102;2023-07-31T09:57:41;1.13;;;1.03;;
6292;SDS011;3179;54.350;10.102;2023-07-31T10:00:10;1.53;;;1.23;;
6292;SDS011;3179;54.350;10.102;2023-07-31T10:02:38;0.87;;;0.87;;
6292;SDS011;3179;54.350;10.102;2023-07-31T10:05:06;1.00;;;1.00;;
6292;SDS011;3179;54.350;10.102;2023-07-31T10:07:36;0.70;;;0.70;;
6292;SDS011;3179;54.350;10.102;2023-07-31T10:10:04;1.47;;;1.00;;
6292;SDS011;3179;54.350;10.102;2023-07-31T10:12:34;1.17;;;0.60;;
6292;SDS011;3179;54.350;10.102;2023-07-31T10:15:02;1.00;;;0.83;;
6292;SDS011;3179;54.350;10.102;2023-07-31T10:17:29;1.00;;;0.90;;
6292;SDS011;3179;54.350;10.102;2023-07-31T10:19:57;0.93;;;0.93;;
6292;SDS011;3179;54.350;10.102;2023-07-31T10:22:26;2.63;;;1.03;;
6292;SDS011;3179;54.350;10.102;2023-07-31T10:24:54;1.63;;;1.00;;
6292;SDS011;3179;54.350;10.102;2023-07-31T10:27:23;1.50;;;1.20;;
6292;SDS011;3179;54.350;10.102;2023-07-31T10:29:52;0.70;;;0.70;;
6292;SDS011;3179;54.350;10.102;2023-07-31T10:32:20;1.00;;;1.00;;
6292;SDS011;3179;54.350;10.102;2023-07-31T10:34:49;1.60;;;0.90;;
6292;SDS011;3179;54.350;10.102;2023-07-31T10:37:23;1.07;;;0.90;;
6292;SDS011;3179;54.350;10.102;2023-07-31T10:39:58;1.20;;;0.97;;
6292;SDS011;3179;54.350;10.102;2023-07-31T10:42:29;1.80;;;1.00;;
6292;SDS011;3179;54.350;10.102;2023-07-31T10:44:59;1.33;;;1.10;;
6292;SDS011;3179;54.350;10.102;2023-07-31T10:47:28;0.90;;;0.90;;
6292;SDS011;3179;54.350;10.102;2023-07-31T10:52:44;1.77;;;1.20;;
6292;SDS011;3179;54.350;10.102;2023-07-31T10:55:15;1.13;;;0.80;;
6292;SDS011;3179;54.350;10.102;2023-07-31T10:57:49;1.00;;;1.00;;
6292;SDS011;3179;54.350;10.102;2023-07-31T11:00:19;1.67;;;0.87;;
6292;SDS011;3179;54.350;10.102;2023-07-31T11:03:03;1.27;;;1.10;;
6292;SDS011;3179;54.350;10.102;2023-07-31T11:05:47;1.53;;;1.00;;
6292;SDS011;3179;54.350;10.102;2023-07-31T11:08:20;1.23;;;1.13;;
6292;SDS011;3179;54.350;10.102;2023-07-31T11:10:48;2.20;;;0.90;;
6292;SDS011;3179;54.350;10.102;2023-07-31T11:13:16;1.40;;;1.30;;
6292;SDS011;3179;54.350;10.102;2023-07-31T11:15:45;0.80;;;0.80;;
6292;SDS011;3179;54.350;10.102;2023-07-31T11:18:11;1.23;;;1.03;;
6292;SDS011;3179;54.350;10.102;2023-07-31T11:20:38;1.20;;;1.10;;
6292;SDS011;3179;54.350;10.102;2023-07-31T11:23:06;1.43;;;0.93;;
6292;SDS011;3179;54.350;10.102;2023-07-31T11:25:35;0.73;;;0.73;;
6292;SDS011;3179;54.350;10.102;2023-07-31T11:28:03;0.90;;;0.90;;
6292;SDS011;3179;54.350;10.102;2023-07-31T11:30:31;1.10;;;1.00;;
6292;SDS011;3179;54.350;10.102;2023-07-31T11:33:00;2.53;;;1.17;;
6292;SDS011;3179;54.350;10.102;2023-07-31T11:35:29;1.27;;;1.07;;
6292;SDS011;3179;54.350;10.102;2023-07-31T11:37:56;1.20;;;1.10;;
6292;SDS011;3179;54.350;10.102;2023-07-31T11:40:23;1.20;;;1.20;;
6292;SDS011;3179;54.350;10.102;2023-07-31T11:42:54;1.10;;;1.00;;
6292;SDS011;3179;54.350;10.102;2023-07-31T11:45:24;0.90;;;0.90;;
6292;SDS011;3179;54.350;10.102;2023-07-31T11:47:53;1.87;;;1.10;;
6292;SDS011;3179;54.350;10.102;2023-07-31T11:50:22;0.97;;;0.90;;
6292;SDS011;3179;54.350;10.102;2023-07-31T11:52:51;1.40;;;1.30;;
6292;SDS011;3179;54.350;10.102;2023-07-31T11:55:21;1.00;;;1.00;;
6292;SDS011;3179;54.350;10.102;2023-07-31T11:57:48;1.23;;;1.13;;
6292;SDS011;3179;54.350;10.102;2023-07-31T12:00:16;1.97;;;1.50;;
6292;SDS011;3179;54.350;10.102;2023-07-31T12:02:43;1.23;;;0.90;;
6292;SDS011;3179;54.350;10.102;2023-07-31T12:05:11;1.03;;;1.03;;
6292;SDS011;3179;54.350;10.102;2023-07-31T12:07:46;1.27;;;1.13;;
6292;SDS011;3179;54.350;10.102;2023-07-31T12:10:24;3.60;;;1.30;;
6292;SDS011;3179;54.350;10.102;2023-07-31T12:12:59;1.03;;;1.03;;
6292;SDS011;3179;54.350;10.102;2023-07-31T12:15:35;1.20;;;1.10;;
6292;SDS011;3179;54.350;10.102;2023-07-31T12:18:07;1.20;;;1.13;;
6292;SDS011;3179;54.350;10.102;2023-07-31T12:20:39;1.50;;;1.20;;
6292;SDS011;3179;54.350;10.102;2023-07-31T12:23:08;2.20;;;1.57;;
6292;SDS011;3179;54.350;10.102;2023-07-31T12:25:40;1.53;;;1.30;;
6292;SDS011;3179;54.350;10.102;2023-07-31T12:28:07;2.60;;;1.37;;
6292;SDS011;3179;54.350;10.102;2023-07-31T12:30:36;1.20;;;1.20;;
6292;SDS011;3179;54.350;10.102;2023-07-31T12:33:04;2.23;;;1.57;;
6292;SDS011;3179;54.350;10.102;2023-07-31T12:35:35;1.33;;;1.23;;
6292;SDS011;3179;54.350;10.102;2023-07-31T12:38:08;1.23;;;1.13;;
6292;SDS011;3179;54.350;10.102;2023-07-31T12:40:36;1.27;;;1.17;;
6292;SDS011;3179;54.350;10.102;2023-07-31T12:43:04;0.97;;;0.97;;
6292;SDS011;3179;54.350;10.102;2023-07-31T12:45:31;1.23;;;1.23;;
6292;SDS011;3179;54.350;10.102;2023-07-31T12:47:58;2.63;;;1.37;;
6292;SDS011;3179;54.350;10.102;2023-07-31T12:50:25;1.30;;;1.20;;
6292;SDS011;3179;54.350;10.102;2023-07-31T12:52:52;4.70;;;1.10;;
6292;SDS011;3179;54.350;10.102;2023-07-31T12:55:21;2.63;;;1.53;;
6292;SDS011;3179;54.350;10.102;2023-07-31T12:57:48;1.77;;;1.10;;
6292;SDS011;3179;54.350;10.102;2023-07-31T13:00:14;2.63;;;1.00;;
6292;SDS011;3179;54.350;10.102;2023-07-31T13:02:41;1.07;;;1.07;;
6292;SDS011;3179;54.350;10.102;2023-07-31T13:05:08;1.07;;;1.07;;
6292;SDS011;3179;54.350;10.102;2023-07-31T13:07:35;1.10;;;1.10;;
6292;SDS011;3179;54.350;10.102;2023-07-31T13:10:03;1.40;;;1.30;;
6292;SDS011;3179;54.350;10.102;2023-07-31T13:12:32;1.30;;;1.20;;
6292;SDS011;3179;54.350;10.102;2023-07-31T13:14:59;0.90;;;0.90;;
6292;SDS011;3179;54.350;10.102;2023-07-31T13:17:26;1.10;;;1.10;;
6292;SDS011;3179;54.350;10.102;2023-07-31T13:19:53;1.00;;;1.00;;
6292;SDS011;3179;54.350;10.102;2023-07-31T13:22:19;1.20;;;1.10;;
6292;SDS011;3179;54.350;10.102;2023-07-31T13:24:46;1.43;;;1.00;;
6292;SDS011;3179;54.350;10.102;2023-07-31T13:27:13;1.20;;;1.10;;
6292;SDS011;3179;54.350;10.102;2023-07-31T13:29:43;1.77;;;1.27;;
6292;SDS011;3179;54.350;10.102;2023-07-31T13:32:09;1.00;;;1.00;;
6292;SDS011;3179;54.350;10.102;2023-07-31T13:34:36;0.97;;;0.97;;
6292;SDS011;3179;54.350;10.102;2023-07-31T13:37:03;0.87;;;0.87;;
6292;SDS011;3179;54.350;10.102;2023-07-31T13:39:31;2.03;;;1.00;;
6292;SDS011;3179;54.350;10.102;2023-07-31T13:41:58;1.23;;;1.13;;
6292;SDS011;3179;54.350;10.102;2023-07-31T13:44:24;1.10;;;1.00;;
6292;SDS011;3179;54.350;10.102;2023-07-31T13:46:53;1.23;;;1.00;;
6292;SDS011;3179;54.350;10.102;2023-07-31T13:49:20;0.93;;;0.83;;
6292;SDS011;3179;54.350;10.102;2023-07-31T13:51:46;2.20;;;0.90;;
6292;SDS011;3179;54.350;10.102;2023-07-31T13:54:13;1.00;;;0.80;;
6292;SDS011;3179;54.350;10.102;2023-07-31T13:56:40;1.13;;;1.03;;
6292;SDS011;3179;54.350;10.102;2023-07-31T13:59:08;0.90;;;0.67;;
6292;SDS011;3179;54.350;10.102;2023-07-31T14:01:36;0.83;;;0.80;;
6292;SDS011;3179;54.350;10.102;2023-07-31T14:04:04;0.70;;;0.70;;
6292;SDS011;3179;54.350;10.102;2023-07-31T14:06:31;0.80;;;0.77;;
6292;SDS011;3179;54.350;10.102;2023-07-31T14:08:57;0.90;;;0.87;;
6292;SDS011;3179;54.350;10.102;2023-07-31T14:11:24;1.20;;;1.00;;
6292;SDS011;3179;54.350;10.102;2023-07-31T14:13:51;0.83;;;0.50;;
6292;SDS011;3179;54.350;10.102;2023-07-31T14:16:18;0.93;;;0.80;;
6292;SDS011;3179;54.350;10.102;2023-07-31T14:18:45;1.47;;;0.90;;
6292;SDS011;3179;54.350;10.102;2023-07-31T14:21:13;0.93;;;0.93;;
6292;SDS011;3179;54.350;10.102;2023-07-31T14:23:40;0.90;;;0.70;;
6292;SDS011;3179;54.350;10.102;2023-07-31T14:26:07;1.10;;;1.10;;
6292;SDS011;3179;54.350;10.102;2023-07-31T14:28:34;0.90;;;0.80;;
6292;SDS011;3179;54.350;10.102;2023-07-31T14:31:01;0.80;;;0.80;;
6292;SDS011;3179;54.350;10.102;2023-07-31T14:33:27;1.10;;;1.00;;
6292;SDS011;3179;54.350;10.102;2023-07-31T14:35:54;1.10;;;1.00;;
6292;SDS011;3179;54.350;10.102;2023-07-31T14:38:22;1.20;;;1.10;;
6292;SDS011;3179;54.350;10.102;2023-07-31T14:40:49;0.60;;;0.60;;
6292;SDS011;3179;54.350;10.102;2023-07-31T14:43:16;0.90;;;0.90;;
6292;SDS011;3179;54.350;10.102;2023-07-31T14:45:43;0.73;;;0.73;;
6292;SDS011;3179;54.350;10.102;2023-07-31T14:48:11;0.77;;;0.77;;
6292;SDS011;3179;54.350;10.102;2023-07-31T14:50:38;0.70;;;0.70;;
6292;SDS011;3179;54.350;10.102;2023-07-31T14:53:04;3.50;;;0.80;;
6292;SDS011;3179;54.350;10.102;2023-07-31T14:55:32;0.83;;;0.80;;
6292;SDS011;3179;54.350;10.102;2023-07-31T14:57:59;1.73;;;0.80;;
6292;SDS011;3179;54.350;10.102;2023-07-31T15:00:26;1.50;;;1.10;;
6292;SDS011;3179;54.350;10.102;2023-07-31T15:02:53;1.10;;;0.90;;
6292;SDS011;3179;54.350;10.102;2023-07-31T15:05:20;1.13;;;0.87;;
6292;SDS011;3179;54.350;10.102;2023-07-31T15:07:46;1.07;;;1.00;;